createdAt,value
2018-05-31T00:01:14.246Z,4.60
2018-05-31T00:03:40.412Z,4.97
2018-05-31T00:06:06.595Z,4.17
2018-05-31T00:08:32.779Z,4.90
2018-05-31T00:10:58.949Z,5.40
2018-05-31T00:13:25.139Z,4.70
2018-05-31T00:15:51.335Z,4.43
2018-05-31T00:18:18.317Z,4.90
2018-05-31T00:20:44.504Z,3.97
2018-05-31T00:23:11.439Z,4.93
2018-05-31T00:25:37.662Z,4.90
2018-05-31T00:28:03.865Z,4.53
2018-05-31T00:30:30.075Z,5.00
2018-05-31T00:32:56.301Z,4.60
2018-05-31T00:35:22.616Z,4.50
2018-05-31T00:37:48.832Z,5.50
2018-05-31T00:40:15.781Z,5.87
2018-05-31T00:42:42.012Z,5.30
2018-05-31T00:45:08.575Z,4.93
2018-05-31T00:47:34.757Z,5.20
2018-05-31T00:50:01.320Z,4.20
2018-05-31T00:52:28.304Z,5.27
2018-05-31T00:54:54.470Z,4.87
2018-05-31T00:57:20.674Z,4.90
2018-05-31T00:59:46.880Z,5.13
2018-05-31T01:02:13.048Z,5.93
2018-05-31T01:04:40.751Z,5.90
2018-05-31T01:07:07.009Z,5.17
2018-05-31T01:09:33.166Z,5.80
2018-05-31T01:11:59.376Z,6.20
2018-05-31T01:14:25.552Z,6.13
2018-05-31T01:16:52.473Z,5.20
2018-05-31T01:19:18.689Z,5.40
2018-05-31T01:21:44.875Z,5.10
2018-05-31T01:24:11.090Z,6.30
2018-05-31T01:26:37.282Z,5.40
2018-05-31T01:29:03.622Z,5.67
2018-05-31T01:31:29.853Z,5.00
2018-05-31T01:33:56.033Z,5.30
2018-05-31T01:36:22.261Z,6.10
2018-05-31T01:38:48.481Z,5.43
2018-05-31T01:41:14.614Z,5.67
2018-05-31T01:43:40.904Z,4.93
2018-05-31T01:46:07.852Z,6.10
2018-05-31T01:48:34.428Z,5.40
2018-05-31T01:51:00.600Z,5.97
2018-05-31T01:53:27.272Z,6.33
2018-05-31T01:55:53.937Z,5.30
2018-05-31T01:58:20.095Z,4.90
2018-05-31T02:00:46.301Z,5.90
2018-05-31T02:03:12.455Z,5.50
2018-05-31T02:05:38.634Z,5.73
2018-05-31T02:08:04.814Z,5.37
2018-05-31T02:10:32.584Z,5.43
2018-05-31T02:12:58.729Z,5.93
2018-05-31T02:15:25.657Z,5.40
2018-05-31T02:17:51.843Z,5.60
2018-05-31T02:23:12.096Z,5.50
2018-05-31T02:25:38.277Z,6.10
2018-05-31T02:28:04.434Z,5.20
2018-05-31T02:30:30.666Z,5.90
2018-05-31T02:32:56.853Z,6.10
2018-05-31T02:35:23.023Z,6.20
2018-05-31T02:37:49.210Z,6.27
2018-05-31T02:40:15.417Z,5.60
2018-05-31T02:42:42.340Z,5.50
2018-05-31T02:45:09.312Z,5.63
2018-05-31T02:47:35.521Z,6.23
2018-05-31T02:50:02.532Z,5.53
2018-05-31T02:52:28.734Z,5.67
2018-05-31T02:54:54.909Z,5.30
2018-05-31T02:57:21.103Z,5.67
2018-05-31T02:59:47.333Z,5.60
2018-05-31T03:02:13.525Z,6.17
2018-05-31T03:04:40.468Z,6.30
2018-05-31T03:07:07.416Z,5.43
2018-05-31T03:09:34.395Z,5.97
2018-05-31T03:12:00.526Z,7.07
2018-05-31T03:14:26.702Z,6.77
2018-05-31T03:16:52.925Z,5.57
2018-05-31T03:19:19.097Z,5.97
2018-05-31T03:21:45.351Z,6.07
2018-05-31T03:24:11.585Z,5.90
2018-05-31T03:26:38.173Z,5.80
2018-05-31T03:29:04.356Z,5.80
2018-05-31T03:31:30.558Z,5.40
2018-05-31T03:33:56.784Z,7.03
2018-05-31T03:36:23.338Z,5.67
2018-05-31T03:38:49.699Z,5.13
2018-05-31T03:41:15.920Z,4.97
2018-05-31T03:43:42.161Z,4.67
2018-05-31T03:46:08.719Z,5.63
2018-05-31T03:48:35.646Z,4.90
2018-05-31T03:51:01.917Z,4.97
2018-05-31T03:53:28.149Z,6.10
2018-05-31T03:55:54.372Z,5.27
2018-05-31T03:58:20.556Z,4.17
2018-05-31T04:00:46.741Z,3.77
2018-05-31T04:03:12.905Z,4.37
2018-05-31T04:05:39.094Z,4.90
2018-05-31T04:08:05.279Z,4.50
2018-05-31T04:10:32.180Z,3.60
2018-05-31T04:12:58.356Z,4.17
2018-05-31T04:15:25.277Z,3.30
2018-05-31T04:17:51.446Z,3.90
2018-05-31T04:20:17.632Z,3.43
2018-05-31T04:22:43.964Z,3.10
2018-05-31T04:25:10.193Z,3.57
2018-05-31T04:27:36.364Z,3.00
2018-05-31T04:30:02.623Z,3.73
2018-05-31T04:32:28.795Z,3.20
2018-05-31T04:34:55.730Z,2.87
2018-05-31T04:37:22.665Z,3.10
2018-05-31T04:39:48.835Z,2.60
2018-05-31T04:42:15.025Z,3.40
2018-05-31T04:44:41.206Z,3.10
2018-05-31T04:47:07.433Z,2.50
2018-05-31T04:49:33.600Z,2.80
2018-05-31T04:51:59.726Z,3.10
2018-05-31T04:54:25.959Z,2.83
2018-05-31T04:56:52.108Z,3.33
2018-05-31T04:59:18.302Z,3.00
2018-05-31T05:01:44.457Z,3.17
2018-05-31T05:04:10.636Z,4.17
2018-05-31T05:06:36.804Z,2.63
2018-05-31T05:09:03.032Z,3.50
2018-05-31T05:11:29.166Z,2.90
2018-05-31T05:13:55.353Z,2.83
2018-05-31T05:16:21.535Z,3.07
2018-05-31T05:18:47.761Z,3.87
2018-05-31T05:21:13.946Z,2.57
2018-05-31T05:23:40.097Z,3.40
2018-05-31T05:26:06.296Z,3.37
2018-05-31T05:28:32.453Z,3.40
2018-05-31T05:30:58.676Z,3.37
2018-05-31T05:33:24.937Z,3.13
2018-05-31T05:35:52.841Z,3.67
2018-05-31T05:38:19.058Z,2.73
2018-05-31T05:40:45.256Z,3.73
2018-05-31T05:43:11.798Z,3.50
2018-05-31T05:45:38.743Z,4.50
2018-05-31T05:48:05.716Z,3.70
2018-05-31T05:50:31.920Z,3.60
2018-05-31T05:52:58.879Z,3.10
2018-05-31T05:55:25.780Z,3.50
2018-05-31T05:57:53.153Z,3.43
2018-05-31T06:00:19.308Z,3.27
2018-05-31T06:02:46.546Z,3.70
2018-05-31T06:05:13.475Z,3.10
2018-05-31T06:07:39.677Z,3.70
2018-05-31T06:10:05.951Z,3.50
2018-05-31T06:12:32.095Z,3.60
2018-05-31T06:14:58.299Z,3.73
2018-05-31T06:17:25.253Z,3.37
2018-05-31T06:19:52.220Z,3.50
2018-05-31T06:22:18.368Z,3.40
2018-05-31T06:24:44.605Z,2.83
2018-05-31T06:27:10.771Z,3.43
2018-05-31T06:29:37.758Z,3.47
2018-05-31T06:32:03.998Z,3.00
2018-05-31T06:34:30.193Z,3.20
2018-05-31T06:36:57.916Z,3.40
2018-05-31T06:39:26.044Z,3.20
2018-05-31T06:41:53.001Z,2.83
2018-05-31T06:44:19.186Z,3.80
2018-05-31T06:46:45.344Z,2.93
2018-05-31T06:49:12.351Z,3.20
2018-05-31T06:51:38.621Z,3.03
2018-05-31T06:54:05.570Z,3.07
2018-05-31T06:56:32.483Z,3.23
2018-05-31T06:58:58.665Z,3.73
2018-05-31T07:01:25.691Z,3.30
2018-05-31T07:03:52.632Z,4.07
2018-05-31T07:06:19.541Z,3.70
2018-05-31T07:08:45.714Z,3.40
2018-05-31T07:11:11.912Z,3.50
2018-05-31T07:13:38.081Z,3.97
2018-05-31T07:16:05.094Z,3.90
2018-05-31T07:18:32.104Z,4.30
2018-05-31T07:20:58.337Z,3.60
2018-05-31T07:23:24.538Z,4.30
2018-05-31T07:25:50.759Z,3.67
2018-05-31T07:28:16.929Z,4.07
2018-05-31T07:30:43.149Z,3.10
2018-05-31T07:33:09.369Z,3.93
2018-05-31T07:35:35.597Z,4.17
2018-05-31T07:38:01.840Z,3.63
2018-05-31T07:40:28.016Z,3.40
2018-05-31T07:42:55.104Z,3.27
2018-05-31T07:45:21.467Z,3.70
2018-05-31T07:47:47.671Z,3.83
2018-05-31T07:50:13.997Z,3.40
2018-05-31T07:52:40.361Z,3.60
2018-05-31T07:55:07.337Z,3.60
2018-05-31T07:57:33.516Z,3.87
2018-05-31T07:59:59.650Z,3.70
2018-05-31T08:02:25.876Z,3.90
2018-05-31T08:04:52.086Z,3.50
2018-05-31T08:07:18.247Z,3.63
2018-05-31T08:09:44.521Z,3.80
2018-05-31T08:12:10.725Z,3.60
2018-05-31T08:14:37.653Z,3.60
2018-05-31T08:17:03.878Z,3.23
2018-05-31T08:19:30.097Z,4.00
2018-05-31T08:21:56.328Z,3.90
2018-05-31T08:24:22.557Z,3.70
2018-05-31T08:26:48.809Z,4.03
2018-05-31T08:29:15.752Z,4.07
2018-05-31T08:31:42.679Z,4.37
2018-05-31T08:34:08.924Z,4.20
2018-05-31T08:36:35.862Z,3.60
2018-05-31T08:39:02.306Z,4.10
2018-05-31T08:41:29.272Z,3.80
2018-05-31T08:43:55.476Z,4.40
2018-05-31T08:46:23.138Z,4.10
2018-05-31T08:48:50.058Z,4.30
2018-05-31T08:51:16.392Z,4.67
2018-05-31T08:53:42.662Z,4.40
2018-05-31T08:56:09.623Z,4.37
2018-05-31T08:58:35.850Z,4.10
2018-05-31T09:01:02.084Z,3.90
2018-05-31T09:03:28.245Z,4.83
2018-05-31T09:05:54.429Z,3.77
2018-05-31T09:08:20.617Z,4.57
2018-05-31T09:10:46.824Z,4.67
2018-05-31T09:13:13.091Z,4.77
2018-05-31T09:15:40.793Z,4.53
2018-05-31T09:18:07.042Z,4.73
2018-05-31T09:20:33.262Z,4.27
2018-05-31T09:22:59.429Z,5.63
2018-05-31T09:25:27.150Z,4.37
2018-05-31T09:27:53.584Z,5.90
2018-05-31T09:30:20.884Z,4.67
2018-05-31T09:32:47.057Z,3.77
2018-05-31T09:35:13.304Z,4.03
2018-05-31T09:37:39.536Z,4.00
2018-05-31T09:40:05.793Z,3.90
2018-05-31T09:42:34.194Z,4.00
2018-05-31T09:45:01.090Z,4.97
2018-05-31T09:47:28.132Z,4.97
2018-05-31T09:49:54.424Z,4.57
2018-05-31T09:52:21.393Z,4.60
2018-05-31T09:54:48.443Z,4.60
2018-05-31T09:57:14.641Z,4.93
2018-05-31T09:59:41.578Z,5.00
2018-05-31T10:02:07.753Z,5.50
2018-05-31T10:04:34.921Z,5.50
2018-05-31T10:07:02.093Z,4.80
2018-05-31T10:09:28.285Z,4.83
2018-05-31T10:11:54.515Z,5.40
2018-05-31T10:14:20.757Z,5.40
2018-05-31T10:16:46.997Z,5.33
2018-05-31T10:19:13.165Z,5.67
2018-05-31T10:21:40.169Z,5.70
2018-05-31T10:24:06.321Z,5.97
2018-05-31T10:26:32.532Z,5.67
2018-05-31T10:28:58.754Z,5.80
2018-05-31T10:31:24.909Z,5.20
2018-05-31T10:33:51.137Z,5.70
2018-05-31T10:36:17.352Z,5.50
2018-05-31T10:38:43.549Z,6.83
2018-05-31T10:41:09.817Z,5.63
2018-05-31T10:43:36.003Z,5.10
2018-05-31T10:46:03.346Z,5.70
2018-05-31T10:48:29.612Z,5.23
2018-05-31T10:50:55.931Z,5.13
2018-05-31T10:53:22.122Z,5.07
2018-05-31T10:55:49.152Z,5.80
2018-05-31T10:58:16.106Z,5.47
2018-05-31T11:00:43.072Z,5.63
2018-05-31T11:03:09.388Z,5.80
2018-05-31T11:05:36.412Z,4.60
2018-05-31T11:08:03.600Z,4.90
2018-05-31T11:10:29.819Z,4.77
2018-05-31T11:12:56.765Z,4.50
2018-05-31T11:15:23.696Z,5.40
2018-05-31T11:17:50.665Z,5.00
2018-05-31T11:20:16.856Z,5.03
2018-05-31T11:22:44.645Z,4.73
2018-05-31T11:25:11.606Z,4.60
2018-05-31T11:27:37.805Z,5.13
2018-05-31T11:30:05.520Z,5.40
2018-05-31T11:32:31.701Z,5.00
2018-05-31T11:34:58.635Z,5.73
2018-05-31T11:37:24.849Z,5.20
2018-05-31T11:39:51.026Z,5.07
2018-05-31T11:42:17.269Z,5.80
2018-05-31T11:44:43.511Z,4.90
2018-05-31T11:47:09.732Z,5.03
2018-05-31T11:49:35.916Z,6.10
2018-05-31T11:52:02.825Z,5.30
2018-05-31T11:54:29.059Z,6.80
2018-05-31T11:56:55.224Z,6.80
2018-05-31T11:59:21.495Z,5.03
2018-05-31T12:01:47.808Z,6.57
2018-05-31T12:04:13.987Z,4.97
2018-05-31T12:06:40.205Z,5.10
2018-05-31T12:09:06.438Z,5.40
2018-05-31T12:11:32.725Z,5.30
2018-05-31T12:13:58.883Z,5.23
2018-05-31T12:16:25.094Z,5.53
2018-05-31T12:18:51.329Z,5.97
2018-05-31T12:21:17.544Z,4.90
2018-05-31T12:23:43.772Z,5.23
2018-05-31T12:26:10.035Z,5.37
2018-05-31T12:28:36.246Z,5.57
2018-05-31T12:31:02.468Z,4.50
2018-05-31T12:33:28.658Z,5.90
2018-05-31T12:35:55.603Z,4.53
2018-05-31T12:38:22.577Z,5.23
2018-05-31T12:40:48.813Z,3.73
2018-05-31T12:43:15.109Z,4.33
2018-05-31T12:45:42.204Z,4.33
2018-05-31T12:48:08.425Z,4.30
2018-05-31T12:50:34.724Z,4.83
2018-05-31T13:02:46.759Z,4.07
2018-05-31T13:05:13.041Z,4.50
2018-05-31T13:07:39.227Z,4.57
2018-05-31T13:10:05.460Z,4.27
2018-05-31T13:12:31.626Z,4.03
2018-05-31T13:14:57.877Z,5.27
2018-05-31T13:17:24.766Z,4.23
2018-05-31T13:19:51.749Z,4.53
2018-05-31T13:22:18.102Z,4.10
2018-05-31T13:24:44.444Z,3.87
2018-05-31T13:27:11.322Z,4.17
2018-05-31T13:29:38.311Z,4.50
2018-05-31T13:32:04.510Z,3.67
2018-05-31T13:34:31.470Z,3.90
2018-05-31T13:36:57.683Z,4.40
2018-05-31T13:39:23.903Z,4.03
2018-05-31T13:41:50.912Z,5.10
2018-05-31T13:44:17.080Z,4.37
2018-05-31T13:46:44.070Z,4.20
2018-05-31T13:49:11.373Z,4.47
2018-05-31T13:51:38.388Z,4.53
2018-05-31T13:54:04.683Z,5.87
2018-05-31T13:56:30.868Z,4.70
2018-05-31T13:58:57.068Z,4.13
2018-05-31T14:01:23.281Z,4.47
2018-05-31T14:03:49.473Z,4.10
2018-05-31T14:06:16.447Z,4.70
2018-05-31T14:08:42.657Z,4.30
2018-05-31T14:11:09.593Z,4.03
2018-05-31T14:13:36.564Z,4.00
2018-05-31T14:16:02.834Z,3.90
2018-05-31T14:18:29.024Z,4.13
2018-05-31T14:21:10.184Z,4.63
2018-05-31T14:23:36.450Z,4.53
2018-05-31T14:26:02.690Z,4.30
2018-05-31T14:28:28.875Z,3.80
2018-05-31T14:30:55.756Z,4.00
2018-05-31T14:33:22.078Z,5.13
2018-05-31T14:35:48.284Z,4.10
2018-05-31T14:38:15.233Z,4.37
2018-05-31T14:40:41.435Z,3.87
2018-05-31T14:43:08.367Z,4.13
2018-05-31T14:45:36.093Z,4.47
2018-05-31T14:48:02.324Z,4.10
2018-05-31T14:50:28.516Z,4.63
2018-05-31T14:52:55.431Z,4.80
2018-05-31T14:55:22.001Z,5.37
2018-05-31T14:57:49.697Z,5.13
2018-05-31T15:00:15.883Z,5.00
2018-05-31T15:02:42.459Z,4.60
2018-05-31T15:05:09.586Z,4.50
2018-05-31T15:07:37.292Z,4.40
2018-05-31T15:10:03.588Z,4.00
2018-05-31T15:12:29.774Z,4.50
2018-05-31T15:14:56.041Z,4.73
2018-05-31T15:17:22.246Z,4.30
2018-05-31T15:19:49.204Z,4.70
2018-05-31T15:22:16.134Z,3.80
2018-05-31T15:24:42.355Z,4.00
2018-05-31T15:27:08.526Z,3.80
2018-05-31T15:29:34.744Z,4.40
2018-05-31T15:32:01.756Z,3.97
2018-05-31T15:34:27.926Z,4.10
2018-05-31T15:36:54.186Z,3.70
2018-05-31T15:39:20.419Z,4.13
2018-05-31T15:41:46.617Z,4.90
2018-05-31T15:44:12.795Z,4.70
2018-05-31T15:46:38.987Z,5.30
2018-05-31T15:49:05.242Z,3.97
2018-05-31T15:51:31.429Z,4.00
2018-05-31T15:53:57.614Z,4.27
2018-05-31T15:56:23.852Z,4.43
2018-05-31T15:58:50.092Z,3.93
2018-05-31T16:01:16.663Z,4.63
2018-05-31T16:03:42.845Z,4.20
2018-05-31T16:06:09.069Z,5.20
2018-05-31T16:08:35.337Z,3.93
2018-05-31T16:11:02.314Z,4.50
2018-05-31T16:13:28.597Z,4.43
2018-05-31T16:15:55.532Z,4.23
2018-05-31T16:18:22.113Z,6.77
2018-05-31T16:20:50.073Z,4.77
2018-05-31T16:23:17.086Z,4.77
2018-05-31T16:25:44.952Z,6.73
2018-05-31T16:28:11.530Z,7.20
2018-05-31T16:30:37.746Z,5.13
2018-05-31T16:33:03.944Z,4.20
2018-05-31T16:35:30.171Z,4.60
2018-05-31T16:37:56.411Z,4.90
2018-05-31T16:40:23.388Z,3.40
2018-05-31T16:42:49.546Z,4.30
2018-05-31T16:45:16.473Z,4.20
2018-05-31T16:47:42.691Z,4.83
2018-05-31T16:50:08.931Z,4.23
2018-05-31T16:52:35.852Z,4.33
2018-05-31T16:55:02.083Z,3.60
2018-05-31T16:57:28.305Z,3.70
2018-05-31T16:59:55.252Z,4.20
2018-05-31T17:02:22.194Z,4.40
2018-05-31T17:04:49.135Z,4.20
2018-05-31T17:07:16.070Z,4.10
2018-05-31T17:09:42.990Z,4.00
2018-05-31T17:12:09.223Z,4.17
2018-05-31T17:14:35.442Z,4.00
2018-05-31T17:17:01.684Z,5.00
2018-05-31T17:19:27.946Z,4.20
2018-05-31T17:21:54.893Z,4.80
2018-05-31T17:24:21.107Z,4.10
2018-05-31T17:26:48.155Z,4.30
2018-05-31T17:29:15.078Z,3.90
2018-05-31T17:31:58.831Z,4.00
2018-05-31T17:34:25.134Z,4.57
2018-05-31T17:36:51.364Z,4.43
2018-05-31T17:39:17.560Z,4.33
2018-05-31T17:41:43.804Z,4.20
2018-05-31T17:44:10.077Z,4.20
2018-05-31T17:46:37.757Z,4.50
2018-05-31T17:49:04.704Z,4.80
2018-05-31T17:51:31.654Z,4.40
2018-05-31T17:53:58.604Z,4.53
2018-05-31T17:56:25.545Z,4.40
2018-05-31T17:58:52.572Z,4.83
2018-05-31T18:01:18.817Z,5.90
2018-05-31T18:03:45.744Z,4.47
2018-05-31T18:06:11.946Z,5.00
2018-05-31T18:08:38.161Z,4.83
2018-05-31T18:11:04.364Z,4.70
2018-05-31T18:13:30.576Z,4.60
2018-05-31T18:15:57.555Z,5.77
2018-05-31T18:18:23.788Z,5.60
2018-05-31T18:20:50.007Z,4.60
2018-05-31T18:23:16.923Z,4.67
2018-05-31T18:25:43.935Z,5.47
2018-05-31T18:28:10.169Z,4.77
2018-05-31T18:30:36.364Z,5.50
2018-05-31T18:33:02.554Z,6.17
2018-05-31T18:35:29.497Z,4.83
2018-05-31T18:37:56.429Z,5.33
2018-05-31T18:40:22.610Z,5.07
2018-05-31T18:42:48.812Z,5.67
2018-05-31T18:45:15.759Z,6.27
2018-05-31T18:47:42.660Z,6.90
2018-05-31T18:50:08.870Z,7.07
2018-05-31T18:52:35.111Z,6.20
2018-05-31T18:55:01.364Z,5.90
2018-05-31T18:57:27.593Z,5.80
2018-05-31T18:59:53.800Z,5.70
2018-05-31T19:02:20.004Z,6.40
2018-05-31T19:04:46.200Z,6.47
2018-05-31T19:07:13.143Z,6.90
2018-05-31T19:09:40.134Z,7.13
2018-05-31T19:12:06.381Z,7.30
2018-05-31T19:14:32.568Z,6.93
2018-05-31T19:16:58.762Z,13.80
2018-05-31T19:19:31.090Z,7.33
2018-05-31T19:21:57.342Z,8.57
2018-05-31T19:24:29.741Z,7.40
2018-05-31T19:26:55.963Z,6.43
2018-05-31T19:29:22.172Z,7.63
2018-05-31T19:31:48.374Z,6.50
2018-05-31T19:34:14.596Z,7.10
2018-05-31T19:36:46.964Z,7.17
2018-05-31T19:39:13.254Z,7.73
2018-05-31T19:41:39.491Z,6.90
2018-05-31T19:44:12.576Z,6.43
2018-05-31T19:46:38.793Z,7.90
2018-05-31T19:49:05.022Z,8.03
2018-05-31T19:51:37.303Z,8.13
2018-05-31T19:54:03.573Z,8.60
2018-05-31T19:56:30.744Z,7.20
2018-05-31T19:59:02.941Z,8.83
2018-05-31T20:01:35.759Z,9.10
2018-05-31T20:04:02.108Z,9.63
2018-05-31T20:06:28.331Z,9.27
2018-05-31T20:08:54.550Z,7.93
2018-05-31T20:11:20.741Z,8.03
2018-05-31T20:13:47.295Z,7.77
2018-05-31T20:16:14.209Z,7.50
2018-05-31T20:18:40.387Z,7.00
2018-05-31T20:21:07.316Z,6.30
2018-05-31T20:23:34.272Z,6.80
2018-05-31T20:26:01.208Z,7.43
2018-05-31T20:28:28.968Z,7.90
2018-05-31T20:30:55.543Z,6.40
2018-05-31T20:33:21.895Z,7.00
2018-05-31T20:35:48.173Z,6.30
2018-05-31T20:38:15.123Z,7.97
2018-05-31T20:40:42.086Z,6.60
2018-05-31T20:43:08.257Z,6.20
2018-05-31T20:45:34.456Z,6.67
2018-05-31T20:48:00.635Z,6.60
2018-05-31T20:50:26.874Z,6.97
2018-05-31T20:52:53.468Z,6.23
2018-05-31T20:55:19.723Z,7.30
2018-05-31T20:57:45.873Z,6.90
2018-05-31T21:00:13.540Z,7.40
2018-05-31T21:02:40.108Z,8.43
2018-05-31T21:05:07.152Z,8.20
2018-05-31T21:07:33.383Z,8.37
2018-05-31T21:09:59.587Z,7.37
2018-05-31T21:12:26.515Z,7.23
2018-05-31T21:14:53.065Z,7.90
2018-05-31T21:17:20.046Z,7.43
2018-05-31T21:19:46.248Z,7.10
2018-05-31T21:22:13.271Z,6.57
2018-05-31T21:24:40.244Z,6.80
2018-05-31T21:27:07.227Z,7.50
2018-05-31T21:29:33.456Z,7.30
2018-05-31T21:31:59.660Z,6.97
2018-05-31T21:34:25.901Z,7.50
2018-05-31T21:36:52.152Z,7.73
2018-05-31T21:39:18.998Z,7.37
2018-05-31T21:41:45.217Z,6.47
2018-05-31T21:44:11.446Z,7.40
2018-05-31T21:46:37.665Z,7.83
2018-05-31T21:49:03.883Z,7.13
2018-05-31T21:51:30.128Z,7.77
2018-05-31T21:53:56.280Z,7.87
2018-05-31T21:56:22.477Z,8.00
2018-05-31T21:58:48.694Z,6.90
2018-05-31T22:01:14.876Z,7.33
2018-05-31T22:03:42.578Z,7.00
2018-05-31T22:06:08.786Z,7.30
2018-05-31T22:08:35.395Z,7.67
2018-05-31T22:11:01.605Z,7.50
2018-05-31T22:13:27.843Z,8.13
2018-05-31T22:15:54.022Z,7.50
2018-05-31T22:18:20.971Z,7.63
2018-05-31T22:20:47.929Z,7.50
2018-05-31T22:23:14.139Z,7.37
2018-05-31T22:25:40.352Z,7.67
2018-05-31T22:28:07.252Z,7.53
2018-05-31T22:30:33.455Z,7.33
2018-05-31T22:32:59.647Z,7.80
2018-05-31T22:35:25.851Z,7.37
2018-05-31T22:37:52.050Z,7.30
2018-05-31T22:40:18.300Z,7.10
2018-05-31T22:42:44.485Z,7.70
2018-05-31T22:45:11.432Z,8.07
2018-05-31T22:47:38.365Z,6.80
2018-05-31T22:50:05.312Z,7.30
2018-05-31T22:52:32.230Z,7.27
2018-05-31T22:54:58.377Z,6.93
2018-05-31T22:57:25.353Z,6.90
2018-05-31T22:59:51.525Z,7.80
2018-05-31T23:02:17.726Z,6.90
2018-05-31T23:04:43.913Z,7.10
2018-05-31T23:07:10.830Z,6.90
2018-05-31T23:09:37.052Z,7.33
2018-05-31T23:12:03.240Z,7.80
2018-05-31T23:14:29.395Z,7.53
2018-05-31T23:16:55.596Z,7.73
2018-05-31T23:19:21.811Z,7.23
2018-05-31T23:21:48.741Z,6.80
2018-05-31T23:24:15.657Z,7.07
2018-05-31T23:26:41.820Z,7.13
2018-05-31T23:29:08.758Z,6.73
2018-05-31T23:31:35.705Z,7.10
2018-05-31T23:34:02.636Z,7.03
2018-05-31T23:36:28.801Z,6.87
2018-05-31T23:38:55.004Z,6.53
2018-05-31T23:41:21.180Z,7.00
2018-05-31T23:43:47.351Z,6.90
2018-05-31T23:46:13.537Z,7.40
2018-05-31T23:48:40.536Z,6.33
2018-05-31T23:51:07.473Z,7.90
2018-05-31T23:53:34.381Z,6.17
2018-05-31T23:56:00.573Z,7.17
2018-05-31T23:58:27.505Z,6.60
